createdAt,value
2022-10-12T00:23:55.221Z,0.00
2022-10-12T00:24:55.201Z,0.00
2022-10-12T00:25:55.211Z,0.00
2022-10-12T00:26:55.219Z,0.00
2022-10-12T00:27:55.225Z,0.00
2022-10-12T00:30:12.830Z,0.00
2022-10-12T00:31:12.843Z,0.00
2022-10-12T00:32:12.848Z,0.00
2022-10-12T00:33:12.844Z,0.00
2022-10-12T00:34:12.859Z,0.00
2022-10-12T00:38:23.795Z,0.00
2022-10-12T01:16:15.775Z,0.00
2022-10-12T01:17:15.755Z,0.00
2022-10-12T01:18:15.759Z,0.00
2022-10-12T01:19:15.756Z,0.00
2022-10-12T01:20:15.769Z,0.00
2022-10-12T01:21:15.774Z,0.00
2022-10-12T01:22:15.779Z,0.00
2022-10-12T01:23:15.781Z,0.00
2022-10-12T01:24:15.789Z,0.00
2022-10-12T01:25:15.784Z,0.00
2022-10-12T01:26:15.790Z,0.00
2022-10-12T01:27:15.800Z,0.00
2022-10-12T01:28:15.859Z,0.00
2022-10-12T01:29:15.809Z,0.00
2022-10-12T01:30:15.818Z,0.00
2022-10-12T01:31:15.811Z,0.00
2022-10-12T01:32:15.846Z,0.00
2022-10-12T01:33:15.828Z,0.00
2022-10-12T01:34:15.825Z,0.00
2022-10-12T01:35:15.829Z,0.00
2022-10-12T01:36:15.841Z,0.00
2022-10-12T01:37:15.849Z,0.00
2022-10-12T01:38:15.851Z,0.00
2022-10-12T02:23:01.026Z,0.00
2022-10-12T02:24:01.005Z,0.00
2022-10-12T02:25:01.011Z,0.00
2022-10-12T02:26:01.022Z,0.00
2022-10-12T02:27:01.019Z,0.00
2022-10-12T02:28:01.032Z,0.00
2022-10-12T02:29:01.028Z,0.00
2022-10-12T02:30:01.034Z,0.00
2022-10-12T02:31:01.042Z,0.00
2022-10-12T02:32:01.041Z,0.00
2022-10-12T02:33:01.052Z,0.00
2022-10-12T02:34:01.049Z,0.00
2022-10-12T02:35:01.059Z,0.00
2022-10-12T02:36:01.059Z,0.00
2022-10-12T02:37:01.069Z,0.00
2022-10-12T02:38:01.075Z,0.00
2022-10-12T02:39:01.102Z,0.00
2022-10-12T02:40:01.076Z,0.00
2022-10-12T02:41:01.079Z,0.00
2022-10-12T02:42:01.093Z,0.00
2022-10-12T02:43:16.378Z,0.00
2022-10-12T02:44:01.093Z,0.00
2022-10-12T02:45:01.105Z,0.00
2022-10-12T02:46:01.099Z,0.00
2022-10-12T02:47:01.113Z,0.00
2022-10-12T02:48:01.115Z,0.00
2022-10-12T02:59:22.795Z,0.00
2022-10-12T03:00:22.768Z,0.00
2022-10-12T03:01:22.864Z,0.00
2022-10-12T03:02:22.768Z,0.00
2022-10-12T03:03:22.770Z,0.00
2022-10-12T03:04:22.777Z,0.00
2022-10-12T03:05:22.785Z,0.00
2022-10-12T03:06:22.785Z,0.00
2022-10-12T03:07:22.796Z,0.00
2022-10-12T03:08:22.805Z,0.00
2022-10-12T03:09:22.816Z,0.00
2022-10-12T03:10:22.803Z,0.00
2022-10-12T03:11:22.811Z,0.00
2022-10-12T03:12:22.818Z,0.00
2022-10-12T03:13:22.819Z,0.00
2022-10-12T03:14:22.825Z,0.00
2022-10-12T03:15:22.851Z,0.00
2022-10-12T03:16:22.832Z,0.00
2022-10-12T03:17:22.829Z,0.00
2022-10-12T03:18:22.841Z,0.00
2022-10-12T03:19:22.846Z,0.00
2022-10-12T03:20:22.846Z,0.00
2022-10-12T03:21:22.854Z,0.00
2022-10-12T03:22:22.858Z,0.00
2022-10-12T03:23:22.863Z,0.00
2022-10-12T03:24:22.859Z,0.00
2022-10-12T03:25:22.865Z,0.00
2022-10-12T03:26:23.179Z,0.00
2022-10-12T03:27:22.872Z,0.00
2022-10-12T03:28:22.970Z,0.00
2022-10-12T03:29:22.880Z,0.00
2022-10-12T03:30:22.888Z,0.00
2022-10-12T03:31:22.918Z,0.00
2022-10-12T03:32:22.892Z,0.00
2022-10-12T03:33:22.900Z,0.00
2022-10-12T03:34:22.903Z,0.00
2022-10-12T03:35:23.915Z,0.00
2022-10-12T03:36:22.910Z,0.00
2022-10-12T03:37:22.910Z,0.00
2022-10-12T03:38:22.924Z,0.00
2022-10-12T03:39:22.920Z,0.00
2022-10-12T03:40:22.926Z,0.00
2022-10-12T03:41:22.938Z,0.00
2022-10-12T03:42:22.934Z,0.00
2022-10-12T03:43:22.943Z,0.00
2022-10-12T03:44:22.943Z,0.00
2022-10-12T03:45:22.944Z,0.00
2022-10-12T03:46:22.950Z,0.00
2022-10-12T03:47:22.983Z,0.00
2022-10-12T03:48:22.966Z,0.00
2022-10-12T03:49:22.967Z,0.00
2022-10-12T03:50:22.974Z,0.00
2022-10-12T03:51:22.977Z,0.00
2022-10-12T03:52:22.974Z,0.00
2022-10-12T03:53:22.987Z,0.00
2022-10-12T03:54:22.988Z,0.00
2022-10-12T03:55:22.988Z,0.00
2022-10-12T03:56:22.999Z,0.00
2022-10-12T03:57:22.995Z,0.00
2022-10-12T03:58:23.005Z,0.00
2022-10-12T03:59:23.008Z,0.00
2022-10-12T04:00:23.013Z,0.00
2022-10-12T04:01:23.052Z,0.00
2022-10-12T04:02:23.021Z,0.00
2022-10-12T04:03:23.051Z,0.00
2022-10-12T04:04:23.029Z,0.00
2022-10-12T04:05:23.035Z,0.00
2022-10-12T04:06:23.037Z,0.00
2022-10-12T04:07:23.035Z,0.00
2022-10-12T04:08:23.046Z,0.00
2022-10-12T04:09:23.049Z,0.00
2022-10-12T04:10:23.048Z,0.00
2022-10-12T04:11:23.049Z,0.00
2022-10-12T04:12:23.055Z,0.00
2022-10-12T04:13:23.057Z,0.00
2022-10-12T04:14:23.063Z,0.00
2022-10-12T04:16:25.051Z,0.00
2022-10-12T04:17:23.080Z,0.00
2022-10-12T04:18:23.093Z,0.00
2022-10-12T04:19:23.107Z,0.00
2022-10-12T04:20:23.094Z,0.00
2022-10-12T04:21:23.088Z,0.00
2022-10-12T04:22:23.093Z,0.00
2022-10-12T04:23:23.104Z,0.00
2022-10-12T04:24:23.109Z,0.00
2022-10-12T04:25:27.722Z,0.00
2022-10-12T04:26:23.108Z,0.00
2022-10-12T04:27:23.115Z,0.00
2022-10-12T04:28:23.176Z,0.00
2022-10-12T04:29:23.123Z,0.00
2022-10-12T04:30:23.132Z,0.00
2022-10-12T04:31:23.139Z,0.00
2022-10-12T04:32:23.140Z,0.00
2022-10-12T04:33:23.147Z,0.00
2022-10-12T04:34:23.140Z,0.00
2022-10-12T04:35:23.169Z,0.00
2022-10-12T04:36:23.155Z,0.00
2022-10-12T04:37:23.160Z,0.00
2022-10-12T04:38:23.162Z,0.00
2022-10-12T04:39:23.169Z,0.00
2022-10-12T04:40:23.176Z,0.00
2022-10-12T04:41:23.177Z,0.00
2022-10-12T04:42:23.171Z,0.00
2022-10-12T04:43:23.183Z,0.00
2022-10-12T04:44:23.187Z,0.00
2022-10-12T04:45:23.185Z,0.00
2022-10-12T04:46:23.188Z,0.00
2022-10-12T04:47:23.190Z,0.00
2022-10-12T04:48:23.199Z,0.00
2022-10-12T04:49:23.202Z,0.00
2022-10-12T04:50:26.321Z,0.00
2022-10-12T04:51:23.226Z,0.00
2022-10-12T04:52:23.218Z,0.00
2022-10-12T04:53:23.212Z,0.00
2022-10-12T04:54:23.223Z,0.00
2022-10-12T04:55:23.227Z,0.00
2022-10-12T04:56:23.228Z,0.00
2022-10-12T04:57:23.235Z,0.00
2022-10-12T04:58:23.235Z,0.00
2022-10-12T04:59:23.245Z,0.00
2022-10-12T05:00:23.254Z,0.00
2022-10-12T05:01:23.282Z,0.00
2022-10-12T05:02:23.249Z,0.00
2022-10-12T05:03:23.256Z,0.00
2022-10-12T05:04:23.283Z,0.00
2022-10-12T05:05:23.268Z,0.00
2022-10-12T05:06:23.264Z,0.00
2022-10-12T05:07:23.291Z,0.00
2022-10-12T05:08:23.271Z,0.00
2022-10-12T05:09:23.284Z,0.00
2022-10-12T05:10:23.278Z,0.00
2022-10-12T05:11:23.284Z,0.00
2022-10-12T05:12:23.295Z,0.00
2022-10-12T05:13:23.293Z,0.00
2022-10-12T05:14:23.295Z,0.00
2022-10-12T05:15:23.307Z,0.00
2022-10-12T05:16:23.310Z,0.00
2022-10-12T05:17:23.308Z,0.00
2022-10-12T05:18:23.317Z,0.00
2022-10-12T05:19:23.323Z,0.00
2022-10-12T05:20:23.318Z,0.00
2022-10-12T05:21:23.320Z,0.00
2022-10-12T05:22:23.325Z,0.00
2022-10-12T05:23:23.351Z,0.00
2022-10-12T05:24:23.335Z,0.00
2022-10-12T05:25:23.335Z,0.00
2022-10-12T05:26:23.341Z,0.00
2022-10-12T05:27:23.351Z,0.00
2022-10-12T05:28:23.437Z,0.00
2022-10-12T05:29:23.360Z,0.00
2022-10-12T05:30:23.362Z,5.63
2022-10-12T05:31:23.360Z,5.63
2022-10-12T05:32:23.369Z,5.63
2022-10-12T05:33:23.374Z,5.63
2022-10-12T05:34:23.379Z,5.63
2022-10-12T05:35:23.375Z,5.63
2022-10-12T05:36:23.386Z,5.63
2022-10-12T05:37:23.382Z,5.63
2022-10-12T05:38:23.392Z,5.63
2022-10-12T05:39:23.411Z,11.25
2022-10-12T05:40:23.399Z,11.25
2022-10-12T05:41:23.404Z,11.25
2022-10-12T05:42:23.401Z,11.25
2022-10-12T05:43:23.410Z,11.25
2022-10-12T05:44:23.407Z,11.25
2022-10-12T05:45:23.418Z,11.25
2022-10-12T05:46:23.415Z,16.88
2022-10-12T05:47:23.417Z,16.88
2022-10-12T05:48:23.424Z,16.88
2022-10-12T05:49:23.424Z,16.88
2022-10-12T05:50:23.437Z,16.88
2022-10-12T05:51:28.647Z,16.88
2022-10-12T05:52:23.436Z,22.50
2022-10-12T05:53:23.442Z,22.50
2022-10-12T05:54:23.450Z,22.50
2022-10-12T05:55:23.477Z,22.50
2022-10-12T05:56:23.457Z,22.50
2022-10-12T05:57:23.456Z,22.50
2022-10-12T05:58:23.457Z,28.13
2022-10-12T05:59:23.471Z,28.13
2022-10-12T06:00:23.467Z,28.13
2022-10-12T06:01:23.488Z,28.13
2022-10-12T06:02:23.480Z,28.13
2022-10-12T06:03:26.190Z,28.13
2022-10-12T06:04:23.487Z,28.13
2022-10-12T06:05:23.493Z,28.13
2022-10-12T06:06:23.496Z,33.75
2022-10-12T06:07:23.502Z,33.75
2022-10-12T06:08:23.495Z,33.75
2022-10-12T06:09:23.508Z,33.75
2022-10-12T06:10:27.727Z,39.38
2022-10-12T06:11:23.539Z,39.38
2022-10-12T06:12:23.519Z,39.38
2022-10-12T06:13:23.513Z,39.38
2022-10-12T06:14:23.520Z,39.38
2022-10-12T06:15:23.528Z,39.38
2022-10-12T06:16:23.534Z,45.00
2022-10-12T06:17:23.535Z,45.00
2022-10-12T06:18:23.542Z,45.00
2022-10-12T06:19:23.536Z,50.63
2022-10-12T06:20:23.542Z,50.63
2022-10-12T06:21:38.958Z,50.63
2022-10-12T06:22:23.549Z,50.63
2022-10-12T06:23:23.552Z,50.63
2022-10-12T06:24:23.560Z,50.63
2022-10-12T06:25:23.560Z,56.25
2022-10-12T06:26:23.564Z,56.25
2022-10-12T06:27:23.590Z,56.25
2022-10-12T06:28:23.651Z,56.25
2022-10-12T06:29:23.577Z,56.25
2022-10-12T06:30:23.586Z,56.25
2022-10-12T06:31:23.592Z,61.88
2022-10-12T06:32:23.595Z,61.88
2022-10-12T06:33:23.592Z,61.88
2022-10-12T06:34:23.603Z,61.88
2022-10-12T06:35:23.602Z,61.88
2022-10-12T06:36:23.608Z,67.50
2022-10-12T06:37:47.978Z,67.50
2022-10-12T06:38:23.618Z,67.50
2022-10-12T06:39:23.624Z,73.13
2022-10-12T06:40:23.625Z,73.13
2022-10-12T06:41:23.625Z,73.13
2022-10-12T06:42:23.627Z,73.13
2022-10-12T06:43:23.653Z,78.75
2022-10-12T06:44:23.636Z,78.75
2022-10-12T06:45:23.639Z,84.38
2022-10-12T06:46:23.651Z,90.00
2022-10-12T06:47:23.654Z,95.63
2022-10-12T06:48:23.653Z,95.63
2022-10-12T06:49:23.662Z,101.25
2022-10-12T06:50:23.667Z,106.88
2022-10-12T06:51:23.663Z,112.50
2022-10-12T06:52:23.676Z,112.50
2022-10-12T06:53:23.672Z,112.50
2022-10-12T06:54:23.678Z,112.50
2022-10-12T06:55:23.688Z,118.13
2022-10-12T06:56:23.685Z,118.13
2022-10-12T06:57:23.697Z,123.75
2022-10-12T06:58:23.705Z,123.75
2022-10-12T06:59:23.727Z,123.75
2022-10-12T07:00:23.702Z,129.38
2022-10-12T07:01:23.785Z,129.38
2022-10-12T07:02:23.718Z,135.00
2022-10-12T07:03:23.725Z,135.00
2022-10-12T07:04:23.719Z,135.00
2022-10-12T07:05:23.736Z,135.00
2022-10-12T07:06:23.735Z,135.00
2022-10-12T07:07:23.732Z,135.00
2022-10-12T07:08:23.751Z,140.63
2022-10-12T07:09:23.748Z,135.00
2022-10-12T07:10:23.829Z,140.63
2022-10-12T07:11:23.758Z,196.88
2022-10-12T07:12:23.763Z,225.00
2022-10-12T07:13:23.759Z,253.13
2022-10-12T07:14:23.775Z,286.88
2022-10-12T07:15:23.794Z,281.25
2022-10-12T07:16:23.779Z,315.00
2022-10-12T07:17:23.785Z,337.50
2022-10-12T07:18:23.784Z,348.75
2022-10-12T07:19:23.798Z,360.00
2022-10-12T07:24:32.958Z,320.63
2022-10-12T07:25:32.964Z,258.75
2022-10-12T07:26:32.963Z,253.13
2022-10-12T07:27:32.970Z,298.13
2022-10-12T07:28:33.045Z,399.38
2022-10-12T07:29:32.993Z,382.50
2022-10-12T07:30:33.024Z,382.50
2022-10-12T07:31:33.013Z,360.00
2022-10-12T07:32:33.005Z,410.63
2022-10-12T07:33:33.013Z,450.00
2022-10-12T07:34:33.026Z,286.88
2022-10-12T07:35:33.034Z,337.50
2022-10-12T07:36:57.558Z,348.75
2022-10-12T07:42:59.135Z,568.13
2022-10-12T07:43:37.322Z,590.63
2022-10-12T07:44:37.338Z,601.88
2022-10-12T07:45:37.360Z,613.13
2022-10-12T07:46:38.367Z,618.75
2022-10-12T07:52:34.091Z,641.25
2022-10-12T08:08:16.533Z,714.38
2022-10-12T08:09:15.011Z,714.38
2022-10-12T08:10:15.025Z,697.50
2022-10-12T08:11:15.037Z,725.63
2022-10-12T08:12:15.047Z,731.25
2022-10-12T08:13:15.068Z,742.50
2022-10-12T08:14:15.070Z,748.13
2022-10-12T08:15:15.084Z,753.75
2022-10-12T08:16:15.095Z,765.00
2022-10-12T08:17:15.109Z,770.63
2022-10-12T08:20:40.994Z,798.75
2022-10-12T08:21:41.009Z,798.75
2022-10-12T08:22:41.019Z,810.00
2022-10-12T15:54:11.843Z,50.63
2022-10-12T15:55:11.831Z,45.00
2022-10-12T15:56:11.839Z,45.00
2022-10-12T15:57:12.183Z,45.00
2022-10-12T15:58:11.858Z,39.38
2022-10-12T15:59:11.865Z,39.38
2022-10-12T16:00:11.880Z,33.75
2022-10-12T16:01:11.950Z,33.75
2022-10-12T16:02:11.892Z,33.75
2022-10-12T16:03:11.912Z,28.13
2022-10-12T16:04:11.922Z,28.13
2022-10-12T16:05:11.935Z,28.13
2022-10-12T16:06:11.933Z,22.50
2022-10-12T16:07:12.331Z,22.50
2022-10-12T16:08:11.962Z,22.50
2022-10-12T16:09:11.967Z,22.50
2022-10-12T16:10:12.007Z,22.50
2022-10-12T16:11:11.991Z,16.88
2022-10-12T16:12:12.004Z,16.88
2022-10-12T16:13:12.016Z,16.88
2022-10-12T16:14:12.024Z,16.88
2022-10-12T16:15:12.040Z,11.25
2022-10-12T16:16:12.047Z,11.25
2022-10-12T16:17:12.393Z,11.25
2022-10-12T16:18:12.069Z,11.25
2022-10-12T16:19:12.071Z,11.25
2022-10-12T16:20:12.088Z,5.63
2022-10-12T16:21:12.092Z,5.63
2022-10-12T16:22:12.110Z,5.63
2022-10-12T16:23:12.112Z,5.63
2022-10-12T16:24:12.932Z,5.63
2022-10-12T16:25:12.133Z,5.63
2022-10-12T16:26:12.162Z,5.63
2022-10-12T16:27:12.417Z,5.63
2022-10-12T16:28:12.253Z,5.63
2022-10-12T16:29:12.183Z,0.00
2022-10-12T16:30:12.187Z,0.00
2022-10-12T16:31:12.198Z,0.00
2022-10-12T16:32:12.459Z,0.00
2022-10-12T16:33:12.221Z,0.00
2022-10-12T16:34:12.234Z,0.00
2022-10-12T16:35:12.239Z,0.00
2022-10-12T16:36:12.253Z,0.00
2022-10-12T16:37:12.257Z,0.00
2022-10-12T16:38:12.273Z,0.00
2022-10-12T16:39:12.285Z,0.00
2022-10-12T16:40:12.286Z,0.00
2022-10-12T16:41:12.307Z,0.00
2022-10-12T16:42:12.606Z,0.00
2022-10-12T16:43:12.323Z,0.00
2022-10-12T16:44:12.326Z,0.00
2022-10-12T16:45:12.342Z,0.00
2022-10-12T16:46:12.353Z,0.00
2022-10-12T16:47:12.355Z,0.00
2022-10-12T16:48:12.367Z,0.00
2022-10-12T16:49:12.382Z,0.00
2022-10-12T16:50:12.389Z,0.00
2022-10-12T16:51:12.397Z,0.00
2022-10-12T16:52:12.691Z,0.00
2022-10-12T16:53:12.418Z,0.00
2022-10-12T16:54:12.429Z,0.00
2022-10-12T16:55:12.442Z,0.00
2022-10-12T16:56:12.457Z,0.00
2022-10-12T16:57:12.461Z,0.00
2022-10-12T16:58:12.481Z,0.00
2022-10-12T16:59:12.474Z,0.00
2022-10-12T17:00:12.489Z,0.00
2022-10-12T17:01:12.569Z,0.00
2022-10-12T17:02:12.714Z,0.00
2022-10-12T17:03:12.511Z,0.00
2022-10-12T17:04:12.526Z,0.00
2022-10-12T17:05:12.529Z,0.00
2022-10-12T17:10:21.719Z,0.00
2022-10-12T17:11:21.719Z,0.00
2022-10-12T17:12:21.736Z,0.00
2022-10-12T17:13:21.774Z,0.00
2022-10-12T17:14:21.754Z,0.00
2022-10-12T17:15:21.756Z,0.00
2022-10-12T17:16:21.773Z,0.00
2022-10-12T17:17:21.779Z,0.00
2022-10-12T17:18:21.782Z,0.00
2022-10-12T17:19:21.798Z,0.00
2022-10-12T17:20:21.807Z,0.00
2022-10-12T17:21:21.817Z,0.00
2022-10-12T17:22:21.827Z,0.00
2022-10-12T17:23:21.835Z,0.00
2022-10-12T17:24:25.671Z,0.00
2022-10-12T17:25:21.853Z,0.00
2022-10-12T17:26:22.201Z,0.00
2022-10-12T19:01:12.714Z,0.00
2022-10-12T20:00:26.995Z,0.00
2022-10-12T20:01:26.983Z,0.00
2022-10-12T20:02:26.982Z,0.00
2022-10-12T20:03:27.010Z,0.00
2022-10-12T20:04:26.999Z,0.00
2022-10-12T20:05:27.016Z,0.00
2022-10-12T20:06:27.016Z,0.00
2022-10-12T20:07:27.026Z,0.00
2022-10-12T20:08:27.037Z,0.00
2022-10-12T20:09:27.043Z,0.00
2022-10-12T20:10:27.053Z,0.00
2022-10-12T20:11:27.057Z,0.00
2022-10-12T20:12:27.067Z,0.00
2022-10-12T20:13:27.073Z,0.00
2022-10-12T20:14:27.085Z,0.00
2022-10-12T20:15:27.087Z,0.00
2022-10-12T20:16:31.103Z,0.00
2022-10-12T20:17:27.098Z,0.00
2022-10-12T20:18:27.111Z,0.00
2022-10-12T20:19:27.118Z,0.00
2022-10-12T20:20:27.119Z,0.00
2022-10-12T20:21:27.134Z,0.00
2022-10-12T20:22:27.135Z,0.00
2022-10-12T20:23:27.147Z,0.00
2022-10-12T20:24:27.156Z,0.00
2022-10-12T20:25:27.164Z,0.00
2022-10-12T20:26:27.164Z,0.00
2022-10-12T20:27:27.177Z,0.00
2022-10-12T20:28:27.219Z,0.00
2022-10-12T20:29:27.184Z,0.00
2022-10-12T20:30:27.202Z,0.00
2022-10-12T20:31:27.199Z,0.00
2022-10-12T20:32:27.228Z,0.00
2022-10-12T20:33:27.214Z,0.00
2022-10-12T20:34:27.231Z,0.00
2022-10-12T20:35:27.229Z,0.00
2022-10-12T20:36:27.245Z,0.00
2022-10-12T20:37:27.246Z,0.00
2022-10-12T20:38:27.253Z,0.00
2022-10-12T20:39:27.266Z,0.00
2022-10-12T20:40:27.267Z,0.00
2022-10-12T20:41:27.280Z,0.00
2022-10-12T20:42:27.806Z,0.00
2022-10-12T20:43:27.289Z,0.00
2022-10-12T20:44:27.303Z,0.00
2022-10-12T20:45:27.309Z,0.00
2022-10-12T20:46:27.317Z,0.00
2022-10-12T20:47:27.318Z,0.00
2022-10-12T20:48:27.448Z,0.00
2022-10-12T20:49:27.339Z,0.00
2022-10-12T20:50:27.347Z,0.00
2022-10-12T20:51:27.354Z,0.00
2022-10-12T20:52:27.356Z,0.00
2022-10-12T20:53:27.368Z,0.00
2022-10-12T20:54:27.377Z,0.00
2022-10-12T20:55:27.382Z,0.00
2022-10-12T20:56:27.403Z,0.00
2022-10-12T20:57:27.397Z,0.00
2022-10-12T20:58:28.135Z,0.00
2022-10-12T20:59:27.413Z,0.00
2022-10-12T21:00:27.421Z,0.00
2022-10-12T21:01:27.427Z,0.00
2022-10-12T21:02:27.434Z,0.00
2022-10-12T21:03:27.441Z,0.00
2022-10-12T21:04:27.458Z,0.00
2022-10-12T21:05:27.457Z,0.00
2022-10-12T21:06:27.455Z,0.00
2022-10-12T21:07:27.462Z,0.00
2022-10-12T21:08:27.471Z,0.00
2022-10-12T21:09:27.476Z,0.00
2022-10-12T21:10:27.485Z,0.00
2022-10-12T21:11:27.490Z,0.00
2022-10-12T21:12:27.498Z,0.00
2022-10-12T21:13:27.506Z,0.00
2022-10-12T21:14:27.512Z,0.00
2022-10-12T21:15:27.518Z,0.00
2022-10-12T21:16:27.533Z,0.00
2022-10-12T21:17:27.534Z,0.00
2022-10-12T21:18:27.544Z,0.00
2022-10-12T21:19:27.554Z,0.00
2022-10-12T21:20:27.581Z,0.00
2022-10-12T21:21:27.563Z,0.00
2022-10-12T21:22:27.575Z,0.00
2022-10-12T21:23:27.582Z,0.00
2022-10-12T21:24:27.591Z,0.00
2022-10-12T21:25:27.593Z,0.00
2022-10-12T21:26:27.606Z,0.00
2022-10-12T21:27:27.612Z,0.00
2022-10-12T21:28:27.670Z,0.00
2022-10-12T21:29:27.628Z,0.00
2022-10-12T21:30:27.634Z,0.00
2022-10-12T21:31:32.031Z,0.00
2022-10-12T21:32:27.646Z,0.00
2022-10-12T21:33:27.655Z,0.00
2022-10-12T21:34:27.662Z,0.00
2022-10-12T21:35:27.675Z,0.00
2022-10-12T21:36:27.696Z,0.00
2022-10-12T21:37:27.682Z,0.00
2022-10-12T21:38:27.691Z,0.00
2022-10-12T21:39:27.687Z,0.00
2022-10-12T21:40:27.697Z,0.00
2022-10-12T21:41:27.704Z,0.00
2022-10-12T21:42:27.716Z,0.00
2022-10-12T21:43:27.724Z,0.00
2022-10-12T21:44:27.724Z,0.00
2022-10-12T21:45:27.731Z,0.00
2022-10-12T21:46:27.738Z,0.00
2022-10-12T21:47:27.745Z,0.00
2022-10-12T21:48:27.758Z,0.00
2022-10-12T21:49:27.850Z,0.00
2022-10-12T21:50:27.773Z,0.00
2022-10-12T21:51:27.780Z,0.00
2022-10-12T21:52:27.872Z,0.00
2022-10-12T21:53:27.795Z,0.00
2022-10-12T21:54:27.797Z,0.00
2022-10-12T21:55:27.799Z,0.00
2022-10-12T21:56:27.815Z,0.00
2022-10-12T21:57:27.821Z,0.00
2022-10-12T21:58:27.828Z,0.00
2022-10-12T21:59:27.835Z,0.00
2022-10-12T22:00:27.854Z,0.00
2022-10-12T22:01:27.841Z,0.00
2022-10-12T22:02:27.854Z,0.00
2022-10-12T22:03:27.862Z,0.00
2022-10-12T22:04:27.860Z,0.00
2022-10-12T22:05:27.869Z,0.00
2022-10-12T22:06:27.882Z,0.00
2022-10-12T22:07:27.889Z,0.00
2022-10-12T22:08:27.914Z,0.00
2022-10-12T22:09:27.903Z,0.00
2022-10-12T22:10:27.901Z,0.00
2022-10-12T22:11:27.908Z,0.00
2022-10-12T22:12:27.921Z,0.00
2022-10-12T22:13:27.931Z,0.00
2022-10-12T22:14:27.928Z,0.00
2022-10-12T22:15:27.935Z,0.00
2022-10-12T22:16:27.942Z,0.00
2022-10-12T22:17:27.954Z,0.00
2022-10-12T22:18:27.964Z,0.00
2022-10-12T22:19:27.969Z,0.00
2022-10-12T22:20:27.970Z,0.00
2022-10-12T22:21:27.976Z,0.00
2022-10-12T22:22:27.984Z,0.00
2022-10-12T22:23:27.994Z,0.00
2022-10-12T22:24:28.019Z,0.00
2022-10-12T22:25:28.008Z,0.00
2022-10-12T22:26:28.015Z,0.00
2022-10-12T22:27:28.022Z,0.00
2022-10-12T22:28:28.082Z,0.00
2022-10-12T22:29:28.041Z,0.00
2022-10-12T22:30:28.044Z,0.00
2022-10-12T22:31:28.042Z,0.00
2022-10-12T22:32:28.050Z,0.00
2022-10-12T22:33:28.055Z,0.00
2022-10-12T22:34:28.062Z,0.00
2022-10-12T22:35:28.076Z,0.00
2022-10-12T22:36:28.074Z,0.00
2022-10-12T22:37:28.083Z,0.00
2022-10-12T22:38:28.088Z,0.00
2022-10-12T22:39:28.115Z,0.00
2022-10-12T22:40:28.128Z,0.00
2022-10-12T22:41:28.115Z,0.00
2022-10-12T22:42:28.122Z,0.00
2022-10-12T22:43:28.129Z,0.00
2022-10-12T22:44:28.134Z,0.00
2022-10-12T22:45:28.352Z,0.00
2022-10-12T22:46:28.141Z,0.00
2022-10-12T22:47:28.149Z,0.00
2022-10-12T22:48:28.153Z,0.00
2022-10-12T22:49:28.169Z,0.00
2022-10-12T22:50:28.175Z,0.00
2022-10-12T22:51:28.173Z,0.00
2022-10-12T22:52:28.188Z,0.00
2022-10-12T22:53:28.192Z,0.00
2022-10-12T22:54:28.194Z,0.00
2022-10-12T22:55:28.207Z,0.00
2022-10-12T22:56:28.228Z,0.00
2022-10-12T22:57:28.213Z,0.00
2022-10-12T22:58:28.229Z,0.00
2022-10-12T22:59:28.226Z,0.00
2022-10-12T23:00:28.269Z,0.00
2022-10-12T23:01:28.246Z,0.00
2022-10-12T23:02:28.248Z,0.00
2022-10-12T23:03:28.259Z,0.00
2022-10-12T23:04:28.269Z,0.00
2022-10-12T23:05:28.272Z,0.00
2022-10-12T23:06:28.281Z,0.00
2022-10-12T23:07:28.287Z,0.00
2022-10-12T23:08:28.292Z,0.00
2022-10-12T23:09:28.303Z,0.00
2022-10-12T23:10:28.309Z,0.00
2022-10-12T23:11:28.305Z,0.00
2022-10-12T23:12:28.337Z,0.00
2022-10-12T23:13:28.327Z,0.00
2022-10-12T23:14:28.325Z,0.00
2022-10-12T23:15:28.332Z,0.00
2022-10-12T23:16:28.345Z,0.00
2022-10-12T23:17:28.354Z,0.00
2022-10-12T23:18:28.360Z,0.00
2022-10-12T23:19:28.368Z,0.00
2022-10-12T23:20:28.364Z,0.00
2022-10-12T23:21:28.384Z,0.00
2022-10-12T23:22:28.385Z,0.00
2022-10-12T23:23:28.384Z,0.00
2022-10-12T23:24:28.400Z,0.00
2022-10-12T23:25:28.404Z,0.00
2022-10-12T23:26:28.405Z,0.00
2022-10-12T23:27:28.417Z,0.00
2022-10-12T23:28:28.513Z,0.00
2022-10-12T23:29:28.424Z,0.00
2022-10-12T23:30:28.438Z,0.00
2022-10-12T23:31:28.439Z,0.00
2022-10-12T23:32:28.454Z,0.00
2022-10-12T23:33:28.458Z,0.00
2022-10-12T23:34:28.460Z,0.00
2022-10-12T23:35:28.462Z,0.00
2022-10-12T23:36:28.470Z,0.00
2022-10-12T23:37:28.476Z,0.00
2022-10-12T23:38:28.483Z,0.00
2022-10-12T23:39:28.495Z,0.00
2022-10-12T23:40:28.502Z,0.00
2022-10-12T23:41:28.512Z,0.00
2022-10-12T23:42:28.510Z,0.00
2022-10-12T23:43:28.515Z,0.00
2022-10-12T23:44:28.562Z,0.00
2022-10-12T23:45:28.534Z,0.00
2022-10-12T23:46:28.548Z,0.00
2022-10-12T23:47:28.547Z,0.00
2022-10-12T23:48:28.555Z,0.00
2022-10-12T23:49:28.561Z,0.00
2022-10-12T23:50:28.574Z,0.00
2022-10-12T23:51:28.578Z,0.00
2022-10-12T23:52:28.583Z,0.00
2022-10-12T23:53:28.582Z,0.00
2022-10-12T23:54:28.594Z,0.00
2022-10-12T23:55:28.601Z,0.00
2022-10-12T23:56:28.609Z,0.00
2022-10-12T23:57:46.072Z,0.00
2022-10-12T23:58:28.613Z,0.00
2022-10-12T23:59:28.626Z,0.00
